Overview Statistics Trail Chart Weather Telemetry Raw packets
 

This is the latest recevied weather packets stored in our database for station/object PY2WOA-13. If no packets are shown the sender has not sent any weather packets the latest 10 day(s).

<< 16 17 18 19 20 >>
Time Temp. Humidity Pressure Rain* Wind** Luminosity Snow
1787873704 25° C 63% 1010.5 hPa - - - -
1787871904 25.56° C 67% 1010.3 hPa - - - -
1787870104 25.56° C 65% 1010 hPa - - - -
1787868311 25.56° C 65% 1009.8 hPa - - - -
1787866504 25.56° C 62% 1009.8 hPa - - - -
1787864704 26.67° C 57% 1009.4 hPa - - - -
1787862904 28.33° C 49% 1009.1 hPa - - - -
1787861104 30.56° C 42% 1008.8 hPa - - - -
1787859304 31.67° C 39% 1008.5 hPa - - - -
1787857504 32.78° C 37% 1008.2 hPa - - - -
1787855704 33.33° C 36% 1008.1 hPa - - - -
1787853904 33.89° C 35% 1008.6 hPa - - - -
1787852103 33.89° C 35% 1009 hPa - - - -
1787850304 33.89° C 37% 1009.7 hPa - - - -
1787848504 33.89° C 37% 1010.6 hPa - - - -
1787846704 32.78° C 42% 1011.6 hPa - - - -
1787844911 31.67° C 43% 1012.3 hPa - - - -
1787843104 31.11° C 45% 1013 hPa - - - -
1787841304 30.56° C 48% 1013.4 hPa - - - -
1787839504 29.44° C 52% 1014.2 hPa - - - -
1787837703 27.78° C 59% 1014.8 hPa - - - -
1787835904 25.56° C 65% 1015.4 hPa - - - -
1787834104 23.33° C 73% 1015.6 hPa - - - -
1787832304 21.67° C 81% 1015.9 hPa - - - -
1787830509 20° C 87% 1016.1 hPa - - - -

* Rain since midnight (hover to see other rain measurements)
** Current wind speed in m/s (hover to see current wind gust speed)